Airmont, New York
Current Conditions -  °F | °C
As of 2:51 PM on Thursday 20 Nov 2014 (Local Time) from KTEB Reporting Station
Scattered Clouds Scattered Clouds  
Wind Chill: 40°   Ceiling: Unl
Heat Index: 47°   Visibility: 10mi
Dew Point: 21°   Wind: 20mph
Humidity: 36%   Direction: 240°WSW
Pressure: 29.84"   Gusts: 26mph
Location:  41.1112°N, 74.0777°W
Report Text: KTEB 201951Z 24017G23KT 220V290 10SM SCT060 08/M06 A2984 RMK AO2 SLP103 T00831061
Loading
Personal Weather Stations






























Interactive Weather Map New forecast layout! Learn more

10-Day Weather Forecast

Advertisements
Track Severe Weather on mobile